Arcadia, Oregon
Current Conditions -  °F | °C
As of 8:53 PM on Thursday 18 Dec 2014 (Local Time) from KONO Reporting Station
Scattered Clouds Scattered Clouds  
Wind Chill: 30°   Ceiling: Unl
Heat Index: 34°   Visibility: 7mi
Dew Point: 32°   Wind: 5mph
Humidity: 92%   Direction: 280°W
Pressure: 30.09"   Gusts: NA
Location:  43.754°N, 117.202°W
Report Text: KONO 190353Z AUTO 28004KT 7SM FEW055 SCT100 01/00 A3009 RMK AO2 SLP207 T00110000
Loading
Personal Weather Stations






























Interactive Weather Map New forecast layout! Learn more

10-Day Weather Forecast

Advertisements
Track Severe Weather on mobile